createdAt,value
2022-08-17T00:02:26.078Z,3.72
2022-08-17T00:04:55.265Z,3.65
2022-08-17T00:07:23.420Z,3.92
2022-08-17T00:09:50.770Z,4.10
2022-08-17T00:12:40.631Z,3.80
2022-08-17T00:15:10.612Z,4.10
2022-08-17T00:17:38.684Z,4.30
2022-08-17T00:20:06.736Z,3.80
2022-08-17T00:22:36.724Z,3.78
2022-08-17T00:25:08.054Z,4.10
2022-08-17T00:27:36.868Z,4.25
2022-08-17T00:30:09.571Z,3.78
2022-08-17T00:33:14.307Z,4.00
2022-08-17T00:35:34.581Z,3.90
2022-08-17T00:38:04.140Z,3.80
2022-08-17T00:40:40.023Z,3.70
2022-08-17T00:43:33.164Z,4.03
2022-08-17T00:46:03.951Z,3.33
2022-08-17T00:48:32.741Z,3.70
2022-08-17T00:51:16.478Z,4.20
2022-08-17T00:53:49.971Z,3.92
2022-08-17T00:56:23.958Z,3.72
2022-08-17T00:58:54.425Z,3.75
2022-08-17T01:01:22.959Z,3.80
2022-08-17T01:03:54.222Z,3.97
2022-08-17T01:06:27.133Z,3.72
2022-08-17T01:08:58.006Z,4.03
2022-08-17T01:11:26.963Z,3.97
2022-08-17T01:13:54.270Z,3.88
2022-08-17T01:16:27.714Z,4.07
2022-08-17T01:19:00.013Z,3.85
2022-08-17T01:21:37.612Z,4.45
2022-08-17T01:24:05.289Z,3.70
2022-08-17T01:26:34.441Z,3.78
2022-08-17T01:29:04.127Z,4.18
2022-08-17T01:31:47.123Z,4.03
2022-08-17T01:34:16.835Z,3.90
2022-08-17T01:36:46.514Z,3.33
2022-08-17T01:39:29.319Z,3.58
2022-08-17T01:42:05.783Z,4.30
2022-08-17T01:44:33.319Z,3.75
2022-08-17T01:47:00.633Z,3.80
2022-08-17T01:49:28.432Z,3.05
2022-08-17T01:51:56.066Z,4.18
2022-08-17T01:54:25.280Z,3.75
2022-08-17T01:56:52.977Z,3.95
2022-08-17T01:59:21.334Z,3.75
2022-08-17T02:01:49.167Z,3.75
2022-08-17T02:04:16.803Z,4.20
2022-08-17T02:06:52.879Z,4.32
2022-08-17T02:09:25.300Z,3.60
2022-08-17T02:14:24.907Z,4.20
2022-08-17T02:16:53.223Z,4.15
2022-08-17T02:19:21.906Z,4.60
2022-08-17T02:21:52.006Z,3.80
2022-08-17T02:25:01.043Z,4.28
2022-08-17T02:27:11.868Z,4.00
2022-08-17T02:29:39.287Z,3.88
2022-08-17T02:32:06.948Z,4.18
2022-08-17T02:34:34.400Z,4.28
2022-08-17T02:37:01.719Z,3.78
2022-08-17T02:39:29.091Z,4.50
2022-08-17T02:42:03.093Z,4.30
2022-08-17T02:44:38.763Z,4.40
2022-08-17T02:47:11.645Z,4.40
2022-08-17T02:49:39.261Z,3.92
2022-08-17T02:52:07.993Z,4.25
2022-08-17T02:54:39.984Z,4.10
2022-08-17T02:57:10.589Z,4.40
2022-08-17T02:59:48.303Z,4.13
2022-08-17T03:02:16.397Z,4.55
2022-08-17T03:04:43.790Z,4.40
2022-08-17T03:07:11.815Z,4.28
2022-08-17T03:09:39.200Z,4.60
2022-08-17T03:12:10.106Z,4.50
2022-08-17T03:14:41.744Z,5.27
2022-08-17T03:17:17.109Z,5.07
2022-08-17T03:19:44.998Z,4.97
2022-08-17T03:22:36.828Z,4.80
2022-08-17T03:24:59.688Z,4.88
2022-08-17T03:27:27.048Z,4.18
2022-08-17T03:29:55.166Z,4.10
2022-08-17T03:32:22.561Z,4.50
2022-08-17T03:34:49.950Z,4.93
2022-08-17T03:37:17.408Z,4.88
2022-08-17T03:39:44.845Z,4.80
2022-08-17T03:42:31.370Z,4.72
2022-08-17T03:45:01.743Z,4.72
2022-08-17T03:47:47.876Z,4.40
2022-08-17T03:50:35.055Z,4.97
2022-08-17T03:53:25.366Z,5.07
2022-08-17T03:56:11.185Z,4.38
2022-08-17T03:58:38.826Z,4.45
2022-08-17T04:01:07.515Z,4.38
2022-08-17T04:03:34.977Z,4.55
2022-08-17T04:06:02.411Z,5.55
2022-08-17T04:08:30.232Z,4.97
2022-08-17T04:10:58.435Z,5.22
2022-08-17T04:13:26.462Z,5.15
2022-08-17T04:15:54.683Z,4.75
2022-08-17T04:18:22.432Z,5.30
2022-08-17T04:20:49.667Z,4.75
2022-08-17T04:23:19.014Z,5.25
2022-08-17T04:25:49.269Z,4.55
2022-08-17T04:28:18.146Z,4.82
2022-08-17T04:30:47.431Z,4.82
2022-08-17T04:33:24.192Z,5.13
2022-08-17T04:35:55.144Z,4.30
2022-08-17T04:38:25.622Z,4.43
2022-08-17T04:41:12.320Z,5.20
2022-08-17T04:43:41.338Z,4.53
2022-08-17T04:46:16.987Z,4.55
2022-08-17T04:48:53.347Z,4.57
2022-08-17T04:51:28.025Z,4.80
2022-08-17T04:54:04.889Z,4.72
2022-08-17T04:56:33.220Z,4.97
2022-08-17T04:59:04.951Z,4.55
2022-08-17T05:01:34.503Z,4.78
2022-08-17T05:04:21.343Z,5.80
2022-08-17T05:06:57.581Z,4.95
2022-08-17T05:09:24.968Z,5.60
2022-08-17T05:11:52.362Z,5.40
2022-08-17T05:14:22.705Z,5.70
2022-08-17T05:17:01.198Z,5.70
2022-08-17T05:19:28.876Z,6.25
2022-08-17T05:21:56.256Z,6.03
2022-08-17T05:24:42.508Z,6.03
2022-08-17T05:27:14.365Z,7.07
2022-08-17T05:29:46.903Z,6.15
2022-08-17T05:32:39.571Z,5.50
2022-08-17T05:35:03.017Z,6.32
2022-08-17T05:37:30.646Z,5.88
2022-08-17T05:39:58.277Z,6.28
2022-08-17T05:42:25.586Z,5.45
2022-08-17T05:44:52.982Z,5.80
2022-08-17T05:47:22.284Z,4.70
2022-08-17T05:49:49.623Z,5.20
2022-08-17T05:52:26.749Z,4.68
2022-08-17T05:55:17.978Z,4.57
2022-08-17T05:58:05.554Z,4.40
2022-08-17T06:00:54.916Z,4.85
2022-08-17T06:03:36.683Z,4.60
2022-08-17T06:06:37.405Z,4.97
2022-08-17T06:09:33.649Z,4.65
2022-08-17T06:12:37.189Z,5.07
2022-08-17T06:15:13.548Z,6.22
2022-08-17T06:17:42.333Z,6.13
2022-08-17T06:20:14.272Z,5.03
2022-08-17T06:22:46.620Z,5.22
2022-08-17T06:25:36.525Z,5.45
2022-08-17T06:28:14.800Z,5.30
2022-08-17T06:31:00.213Z,5.80
2022-08-17T06:33:35.224Z,5.65
2022-08-17T06:36:17.917Z,5.03
2022-08-17T06:38:54.790Z,4.63
2022-08-17T06:41:53.948Z,4.38
2022-08-17T06:44:53.990Z,4.50
2022-08-17T06:47:52.124Z,4.72
2022-08-17T06:50:44.018Z,5.38
2022-08-17T06:53:23.409Z,4.80
2022-08-17T06:55:53.442Z,4.22
2022-08-17T06:58:29.531Z,4.90
2022-08-17T07:01:04.093Z,5.80
2022-08-17T07:03:54.736Z,4.70
2022-08-17T07:06:26.606Z,4.38
2022-08-17T07:09:14.087Z,4.55
2022-08-17T07:11:56.483Z,5.03
2022-08-17T07:14:32.429Z,4.20
2022-08-17T07:17:11.516Z,4.45
2022-08-17T07:19:40.999Z,4.60
2022-08-17T07:22:27.950Z,4.75
2022-08-17T07:24:58.363Z,3.95
2022-08-17T07:27:51.185Z,4.60
2022-08-17T07:30:22.739Z,4.57
2022-08-17T07:33:00.491Z,4.57
2022-08-17T07:35:41.284Z,3.78
2022-08-17T07:38:25.941Z,3.95
2022-08-17T07:41:03.139Z,3.85
2022-08-17T07:43:39.849Z,3.38
2022-08-17T07:46:47.819Z,3.67
2022-08-17T07:49:15.189Z,3.97
2022-08-17T07:51:42.440Z,4.15
2022-08-17T07:54:15.679Z,4.07
2022-08-17T07:56:52.486Z,4.53
2022-08-17T07:59:35.126Z,4.10
2022-08-17T08:02:40.229Z,3.67
2022-08-17T08:05:25.052Z,3.92
2022-08-17T08:08:23.844Z,3.88
2022-08-17T08:11:02.965Z,4.50
2022-08-17T08:13:32.262Z,4.13
2022-08-17T08:16:15.299Z,4.15
2022-08-17T08:18:55.283Z,3.78
2022-08-17T08:21:42.936Z,4.07
2022-08-17T08:24:10.857Z,3.97
2022-08-17T08:26:44.446Z,4.20
2022-08-17T08:29:18.375Z,4.47
2022-08-17T08:31:51.867Z,4.15
2022-08-17T08:34:44.621Z,4.53
2022-08-17T08:37:36.749Z,3.97
2022-08-17T08:40:33.308Z,4.15
2022-08-17T08:43:19.430Z,4.20
2022-08-17T08:46:05.208Z,4.13
2022-08-17T08:48:58.654Z,3.35
2022-08-17T08:51:57.819Z,3.83
2022-08-17T08:54:53.937Z,4.00
2022-08-17T08:57:34.372Z,3.65
2022-08-17T09:00:20.919Z,3.75
2022-08-17T09:03:10.207Z,3.67
2022-08-17T09:06:00.275Z,3.00
2022-08-17T09:08:36.537Z,3.05
2022-08-17T09:11:11.500Z,3.08
2022-08-17T09:13:52.939Z,2.53
2022-08-17T09:16:40.500Z,2.92
2022-08-17T09:19:36.335Z,3.30
2022-08-17T09:22:35.860Z,2.85
2022-08-17T09:25:29.003Z,3.00
2022-08-17T09:28:03.761Z,3.05
2022-08-17T09:30:56.609Z,2.95
2022-08-17T09:33:27.710Z,2.45
2022-08-17T09:36:11.396Z,3.42
2022-08-17T09:39:03.371Z,2.78
2022-08-17T09:41:58.568Z,3.10
2022-08-17T09:44:58.782Z,2.63
2022-08-17T09:47:30.585Z,2.35
2022-08-17T09:51:03.585Z,2.28
2022-08-17T09:53:11.975Z,2.80
2022-08-17T09:56:17.713Z,2.55
2022-08-17T09:59:20.417Z,2.70
2022-08-17T10:02:19.983Z,2.28
2022-08-17T10:04:58.263Z,2.70
2022-08-17T10:07:25.537Z,2.58
2022-08-17T10:09:59.871Z,2.58
2022-08-17T10:12:49.502Z,2.60
2022-08-17T10:15:22.445Z,2.40
2022-08-17T10:17:50.693Z,2.13
2022-08-17T10:20:30.049Z,2.53
2022-08-17T10:23:21.645Z,2.58
2022-08-17T10:26:15.669Z,2.72
2022-08-17T10:28:54.851Z,3.15
2022-08-17T10:31:34.894Z,2.67
2022-08-17T10:34:11.934Z,3.22
2022-08-17T10:36:52.445Z,2.60
2022-08-17T10:39:50.450Z,2.47
2022-08-17T10:42:50.206Z,2.60
2022-08-17T10:45:26.610Z,2.72
2022-08-17T10:48:05.030Z,2.80
2022-08-17T10:50:59.914Z,2.83
2022-08-17T10:53:48.493Z,2.67
2022-08-17T10:56:17.460Z,2.92
2022-08-17T10:58:49.740Z,2.60
2022-08-17T11:01:18.153Z,3.38
2022-08-17T11:03:54.716Z,3.15
2022-08-17T11:06:50.918Z,3.10
2022-08-17T11:09:48.488Z,2.63
2022-08-17T11:12:37.987Z,3.15
2022-08-17T11:15:41.319Z,3.25
2022-08-17T11:18:39.845Z,3.47
2022-08-17T11:21:20.372Z,3.28
2022-08-17T11:24:30.522Z,3.50
2022-08-17T11:27:07.678Z,3.42
2022-08-17T11:30:02.284Z,3.70
2022-08-17T11:32:54.730Z,3.40
2022-08-17T11:35:38.772Z,3.70
2022-08-17T11:38:16.403Z,3.42
2022-08-17T11:41:30.515Z,3.35
2022-08-17T11:44:05.618Z,3.80
2022-08-17T11:47:32.844Z,2.92
2022-08-17T11:50:49.223Z,4.07
2022-08-17T11:53:38.005Z,3.05
2022-08-17T11:56:09.489Z,3.40
2022-08-17T11:58:44.908Z,3.55
2022-08-17T12:01:16.158Z,4.00
2022-08-17T12:03:55.433Z,4.05
2022-08-17T12:06:43.931Z,4.07
2022-08-17T12:09:29.962Z,3.70
2022-08-17T12:12:13.876Z,4.07
2022-08-17T12:15:09.454Z,3.65
2022-08-17T12:17:41.613Z,3.78
2022-08-17T12:20:15.562Z,4.03
2022-08-17T12:23:01.035Z,4.35
2022-08-17T12:25:41.620Z,4.57
2022-08-17T12:28:48.899Z,3.83
2022-08-17T12:31:23.409Z,4.30
2022-08-17T12:33:51.746Z,4.10
2022-08-17T12:36:25.418Z,4.05
2022-08-17T12:39:12.992Z,3.55
2022-08-17T12:41:44.738Z,4.10
2022-08-17T12:44:12.278Z,4.93
2022-08-17T12:46:56.511Z,4.30
2022-08-17T12:49:33.230Z,4.20
2022-08-17T12:52:23.640Z,4.32
2022-08-17T12:55:12.244Z,4.57
2022-08-17T12:57:43.976Z,4.22
2022-08-17T13:03:05.855Z,4.07
2022-08-17T13:05:54.973Z,4.00
2022-08-17T13:08:31.080Z,4.38
2022-08-17T13:11:02.956Z,4.15
2022-08-17T13:13:37.030Z,4.78
2022-08-17T13:16:14.627Z,4.65
2022-08-17T13:18:51.851Z,4.50
2022-08-17T13:21:19.240Z,4.20
2022-08-17T13:23:58.722Z,4.50
2022-08-17T13:26:38.896Z,4.82
2022-08-17T13:29:16.555Z,4.60
2022-08-17T13:31:52.116Z,4.65
2022-08-17T13:34:23.937Z,4.40
2022-08-17T13:37:41.048Z,4.47
2022-08-17T13:40:10.184Z,4.47
2022-08-17T13:42:51.680Z,5.05
2022-08-17T13:45:35.234Z,4.60
2022-08-17T13:48:13.475Z,4.40
2022-08-17T13:50:56.046Z,5.07
2022-08-17T13:53:38.154Z,4.72
2022-08-17T13:56:33.489Z,4.25
2022-08-17T13:59:11.225Z,4.40
2022-08-17T14:01:41.934Z,4.35
2022-08-17T14:04:21.691Z,4.07
2022-08-17T14:06:54.515Z,4.47
2022-08-17T14:09:27.033Z,5.28
2022-08-17T14:11:56.747Z,4.00
2022-08-17T14:14:24.653Z,7.63
2022-08-17T14:16:53.264Z,4.85
2022-08-17T14:19:24.382Z,4.82
2022-08-17T14:21:56.394Z,4.28
2022-08-17T14:24:26.575Z,6.00
2022-08-17T14:26:54.496Z,4.72
2022-08-17T14:29:23.078Z,4.85
2022-08-17T14:31:54.334Z,4.93
2022-08-17T14:34:23.314Z,5.20
2022-08-17T14:36:51.189Z,4.70
2022-08-17T14:39:19.271Z,5.57
2022-08-17T14:41:47.081Z,4.30
2022-08-17T14:44:14.773Z,4.88
2022-08-17T14:46:43.290Z,4.38
2022-08-17T14:49:12.201Z,4.82
2022-08-17T14:51:44.377Z,4.60
2022-08-17T14:54:32.713Z,5.18
2022-08-17T14:57:22.392Z,4.82
2022-08-17T14:59:49.199Z,4.93
2022-08-17T15:02:22.199Z,4.55
2022-08-17T15:05:05.230Z,3.88
2022-08-17T15:07:32.937Z,4.60
2022-08-17T15:10:02.165Z,4.38
2022-08-17T15:12:33.137Z,4.50
2022-08-17T15:15:02.046Z,4.93
2022-08-17T15:17:45.234Z,4.22
2022-08-17T15:20:18.055Z,5.07
2022-08-17T15:22:49.402Z,4.00
2022-08-17T15:25:17.639Z,4.40
2022-08-17T15:27:45.371Z,4.60
2022-08-17T15:30:13.499Z,4.30
2022-08-17T15:32:45.775Z,5.35
2022-08-17T15:35:28.015Z,4.67
2022-08-17T15:37:57.076Z,4.78
2022-08-17T15:40:25.191Z,5.13
2022-08-17T15:42:52.980Z,4.35
2022-08-17T15:45:22.883Z,4.30
2022-08-17T15:47:50.720Z,4.57
2022-08-17T15:50:18.567Z,5.80
2022-08-17T15:52:47.492Z,4.53
2022-08-17T15:55:16.590Z,4.15
2022-08-17T15:57:45.518Z,4.43
2022-08-17T16:00:13.213Z,4.53
2022-08-17T16:03:44.508Z,4.55
2022-08-17T16:05:31.143Z,4.63
2022-08-17T16:07:59.824Z,5.63
2022-08-17T16:10:35.356Z,4.32
2022-08-17T16:13:04.596Z,4.47
2022-08-17T16:15:32.582Z,4.28
2022-08-17T16:18:00.303Z,4.60
2022-08-17T16:20:28.242Z,4.50
2022-08-17T16:22:55.926Z,4.85
2022-08-17T16:25:49.068Z,4.38
2022-08-17T16:28:17.978Z,4.35
2022-08-17T16:30:45.828Z,4.25
2022-08-17T16:33:13.617Z,4.68
2022-08-17T16:35:42.023Z,4.60
2022-08-17T16:38:10.872Z,4.55
2022-08-17T16:40:38.739Z,4.47
2022-08-17T16:43:10.654Z,4.68
2022-08-17T16:45:40.561Z,5.18
2022-08-17T16:48:09.414Z,5.53
2022-08-17T16:50:37.377Z,5.05
2022-08-17T16:53:06.706Z,4.90
2022-08-17T16:55:37.476Z,5.20
2022-08-17T16:58:06.067Z,5.53
2022-08-17T17:00:34.010Z,4.97
2022-08-17T17:03:19.182Z,4.82
2022-08-17T17:06:07.256Z,5.28
2022-08-17T17:08:42.068Z,4.80
2022-08-17T17:11:14.494Z,5.05
2022-08-17T17:13:42.128Z,5.40
2022-08-17T17:16:28.622Z,5.30
2022-08-17T17:19:11.459Z,4.93
2022-08-17T17:21:44.480Z,7.03
2022-08-17T17:24:15.612Z,5.95
2022-08-17T17:26:55.610Z,5.43
2022-08-17T17:29:47.173Z,6.22
2022-08-17T17:32:29.089Z,6.00
2022-08-17T17:35:00.563Z,5.72
2022-08-17T17:37:32.564Z,5.85
2022-08-17T17:40:14.476Z,5.45
2022-08-17T17:42:44.233Z,5.32
2022-08-17T17:45:22.142Z,5.72
2022-08-17T17:47:49.814Z,5.28
2022-08-17T17:50:18.869Z,5.95
2022-08-17T17:52:47.489Z,5.15
2022-08-17T17:55:17.830Z,5.57
2022-08-17T17:57:48.606Z,5.13
2022-08-17T18:00:22.090Z,5.60
2022-08-17T18:02:53.157Z,5.20
2022-08-17T18:05:34.222Z,5.47
2022-08-17T18:08:10.715Z,5.03
2022-08-17T18:10:38.838Z,4.70
2022-08-17T18:13:26.586Z,4.30
2022-08-17T18:15:55.298Z,4.45
2022-08-17T18:18:23.003Z,3.83
2022-08-17T18:20:56.264Z,3.20
2022-08-17T18:23:28.221Z,3.00
2022-08-17T18:25:57.072Z,2.60
2022-08-17T18:28:39.787Z,2.58
2022-08-17T18:31:17.163Z,2.40
2022-08-17T18:33:46.867Z,2.85
2022-08-17T18:36:26.342Z,2.40
2022-08-17T18:39:09.487Z,2.10
2022-08-17T18:41:50.369Z,2.95
2022-08-17T18:44:32.977Z,5.20
2022-08-17T18:47:13.686Z,5.32
2022-08-17T18:49:42.576Z,3.67
2022-08-17T18:52:28.843Z,3.70
2022-08-17T18:55:12.385Z,4.63
2022-08-17T18:57:40.059Z,3.80
2022-08-17T19:00:12.347Z,3.30
2022-08-17T19:02:51.387Z,4.85
2022-08-17T19:05:28.394Z,4.32
2022-08-17T19:08:14.533Z,3.60
2022-08-17T19:10:46.234Z,3.35
2022-08-17T19:13:24.111Z,3.67
2022-08-17T19:16:11.820Z,3.80
2022-08-17T19:18:53.082Z,3.65
2022-08-17T19:21:26.216Z,3.08
2022-08-17T19:24:05.782Z,3.55
2022-08-17T19:26:54.032Z,3.95
2022-08-17T19:29:37.926Z,5.10
2022-08-17T19:32:08.055Z,3.15
2022-08-17T19:34:36.876Z,3.63
2022-08-17T19:37:23.904Z,3.83
2022-08-17T19:40:03.535Z,3.35
2022-08-17T19:42:31.502Z,3.45
2022-08-17T19:45:08.244Z,4.03
2022-08-17T19:47:55.546Z,3.60
2022-08-17T19:50:32.573Z,3.78
2022-08-17T19:53:19.127Z,3.30
2022-08-17T19:55:47.430Z,3.60
2022-08-17T19:58:38.698Z,3.92
2022-08-17T20:01:10.590Z,4.22
2022-08-17T20:03:51.735Z,3.88
2022-08-17T20:06:19.596Z,4.50
2022-08-17T20:08:58.897Z,3.92
2022-08-17T20:11:34.515Z,3.17
2022-08-17T20:14:15.966Z,3.25
2022-08-17T20:16:43.819Z,3.42
2022-08-17T20:19:26.325Z,3.45
2022-08-17T20:22:01.047Z,3.75
2022-08-17T20:24:43.111Z,3.20
2022-08-17T20:27:19.137Z,3.25
2022-08-17T20:30:06.804Z,3.20
2022-08-17T20:32:51.848Z,3.15
2022-08-17T20:35:19.434Z,2.50
2022-08-17T20:37:53.239Z,2.40
2022-08-17T20:40:43.916Z,2.67
2022-08-17T20:43:30.390Z,2.97
2022-08-17T20:46:09.980Z,2.40
2022-08-17T20:48:40.210Z,2.13
2022-08-17T20:51:14.503Z,2.20
2022-08-17T20:53:48.023Z,2.08
2022-08-17T20:56:34.221Z,2.08
2022-08-17T20:59:02.022Z,2.20
2022-08-17T21:01:39.565Z,2.15
2022-08-17T21:04:08.438Z,2.22
2022-08-17T21:06:56.022Z,1.90
2022-08-17T21:09:29.813Z,2.05
2022-08-17T21:12:04.527Z,2.35
2022-08-17T21:14:54.192Z,2.65
2022-08-17T21:17:38.173Z,1.90
2022-08-17T21:20:12.679Z,2.10
2022-08-17T21:22:59.301Z,2.30
2022-08-17T21:25:48.214Z,2.30
2022-08-17T21:28:34.574Z,2.50
2022-08-17T21:31:08.491Z,2.22
2022-08-17T21:33:38.549Z,2.35
2022-08-17T21:36:12.060Z,2.42
2022-08-17T21:38:49.032Z,2.92
2022-08-17T21:41:26.395Z,2.72
2022-08-17T21:43:56.324Z,3.10
2022-08-17T21:46:36.923Z,3.10
2022-08-17T21:49:08.925Z,2.80
2022-08-17T21:52:10.381Z,3.45
2022-08-17T21:54:40.685Z,3.30
2022-08-17T21:57:16.341Z,3.63
2022-08-17T21:59:44.370Z,3.55
2022-08-17T22:02:41.809Z,3.70
2022-08-17T22:05:11.174Z,3.20
2022-08-17T22:07:47.000Z,4.18
2022-08-17T22:10:29.825Z,3.90
2022-08-17T22:13:04.922Z,3.95
2022-08-17T22:15:35.806Z,3.90
2022-08-17T22:18:20.309Z,4.60
2022-08-17T22:20:52.956Z,4.60
2022-08-17T22:23:50.391Z,4.45
2022-08-17T22:26:19.522Z,4.05
2022-08-17T22:28:56.395Z,4.50
2022-08-17T22:31:25.317Z,4.38
2022-08-17T22:34:07.669Z,4.70
2022-08-17T22:36:37.025Z,4.53
2022-08-17T22:39:08.355Z,3.90
2022-08-17T22:41:35.993Z,4.90
2022-08-17T22:44:12.550Z,4.97
2022-08-17T22:46:42.092Z,4.85
2022-08-17T22:49:09.756Z,4.65
2022-08-17T22:51:37.732Z,4.85
2022-08-17T22:54:35.180Z,3.95
2022-08-17T22:57:22.339Z,5.03
2022-08-17T22:59:54.627Z,4.65
2022-08-17T23:02:22.320Z,5.03
2022-08-17T23:05:10.241Z,4.78
2022-08-17T23:07:37.894Z,5.20
2022-08-17T23:10:09.437Z,5.10
2022-08-17T23:12:39.810Z,4.70
2022-08-17T23:15:12.685Z,4.80
2022-08-17T23:17:41.965Z,4.35
2022-08-17T23:20:12.583Z,4.20
2022-08-17T23:22:51.759Z,4.30
2022-08-17T23:25:25.740Z,4.80
2022-08-17T23:27:53.682Z,4.88
2022-08-17T23:30:24.908Z,4.60
2022-08-17T23:32:54.199Z,4.95
2022-08-17T23:35:39.698Z,5.05
2022-08-17T23:38:12.758Z,4.40
2022-08-17T23:43:24.021Z,5.03
2022-08-17T23:45:59.473Z,4.68
2022-08-17T23:48:32.573Z,5.10
2022-08-17T23:51:09.154Z,4.43
2022-08-17T23:53:37.939Z,5.07
2022-08-17T23:56:10.157Z,4.57
2022-08-17T23:58:39.270Z,5.35
